Latest Weather Observations for Douglas River

IDD60801

Issued at 2:31 pm CST Tuesday 4 August 2015 (issued every 30 minutes, with the page automatically refreshed every 10 minutes)

About weather observations | Map of weather stations | Latest weather observations for NT | Other Formats
Station Details ID: 014901 Name: DOUGLAS RIVER Lat: -13.83 Lon: 131.19 Height: 42.8 m
Data from the previous 72 hours. | See also: Recent months at Douglas River
Date/Time
CST
Temp
°C
App
Temp
°C
Dew
Point
Rel
Hum
%
Delta-T
°C
Wind Press
QNH
hPa
Press
MSL
hPa
Rain
since 9 am
mm
Dir
 
Spd
km/h
Gust
km/h
Spd
kts
Gust
kts
04/02:30pm 30.7 25.5 3.8 18 13.8 SE 20 30 11 16 1014.3 1014.1 0.0
04/02:00pm 30.8 25.2 3.6 18 13.9 ESE 22 33 12 18 1014.9 1014.7 0.0
04/01:30pm 30.5 24.9 3.3 17 13.8 SE 22 32 12 17 1015.6 1015.4 0.0
04/01:00pm 30.5 25.4 3.3 17 13.8 ESE 19 28 10 15 1016.3 1016.1 0.0
04/12:30pm 29.9 24.8 3.1 18 13.5 SE 19 33 10 18 1016.8 1016.6 0.0
04/12:00pm 28.1 22.5 3.2 20 12.4 SE 22 32 12 17 1017.5 1017.3 0.0
04/11:30am 28.0 22.2 2.3 19 12.6 SE 22 33 12 18 1017.9 1017.7 0.0
04/11:00am 26.4 19.8 2.2 21 11.7 SE 26 32 14 17 1018.5 1018.3 0.0
04/10:30am 26.0 18.7 2.5 21 11.4 SE 30 37 16 20 1018.7 1018.5 0.0
04/10:00am 25.4 18.4 2.0 21 11.2 ESE 28 35 15 19 1018.7 1018.5 0.0
04/09:30am 24.4 17.1 2.5 24 10.5 ESE 30 41 16 22 1018.7 1018.5 0.0
04/09:25am 24.0 17.1 2.4 24 10.3 ESE 28 41 15 22 1018.8 - 0.0
04/09:00am 22.1 17.9 5.5 34 8.3 SE 17 24 9 13 1018.6 1018.4 0.0
04/08:30am 20.6 18.3 7.3 42 6.8 SSE 9 13 5 7 1018.4 1018.2 0.0
04/08:00am 17.5 15.9 8.8 56 4.5 ESE 7 9 4 5 1018.1 1017.9 0.0
04/07:30am 17.5 15.8 8.3 54 4.7 ESE 7 9 4 5 1017.7 1017.5 0.0
04/07:00am 17.3 15.6 8.5 56 4.5 SE 7 9 4 5 1017.4 1017.2 0.0
04/06:30am 17.3 15.7 8.8 57 4.4 E 7 9 4 5 1017.0 1016.8 0.0
04/06:00am 15.8 14.0 9.4 65 3.3 E 9 9 5 5 1016.7 1016.5 0.0
04/05:30am 15.9 14.7 10.4 70 2.9 E 7 9 4 5 1016.4 1016.2 0.0
04/05:00am 16.8 16.9 10.2 65 3.5 CALM 0 0 0 0 1016.2 1016.0 0.0
04/04:30am 17.1 17.2 10.3 64 3.6 CALM 0 0 0 0 1015.9 1015.7 0.0
04/04:00am 19.9 17.8 8.4 47 6.0 ESE 9 11 5 6 1015.6 1015.4 0.0
04/03:30am 19.9 18.3 8.6 48 5.9 ESE 7 11 4 6 1015.4 1015.2 0.0
04/03:00am 20.0 17.3 9.0 49 5.8 SSE 13 19 7 10 1015.3 1015.1 0.0
04/02:30am 20.3 17.3 9.2 49 5.9 SSE 15 19 8 10 1015.4 1015.2 0.0
04/02:00am 19.8 17.6 9.2 50 5.6 SE 11 17 6 9 1015.5 1015.3 0.0
04/01:30am 18.7 17.5 9.6 55 4.8 ENE 6 7 3 4 1015.3 1015.1 0.0
04/01:00am 19.9 18.1 9.6 51 5.5 E 9 11 5 6 1015.6 1015.4 0.0
04/12:30am 21.2 19.9 9.2 46 6.4 ENE 6 9 3 5 1015.7 1015.5 0.0
04/12:00am 21.8 20.4 9.5 45 6.6 ESE 7 7 4 4 1015.6 1015.4 0.0
 
Date/Time
CST
Temp
°C
App
Temp
°C
Dew
Point
Rel
Hum
%
Delta-T
°C
Wind Press
QNH
hPa
Press
MSL
hPa
Rain
since 9 am
mm
Dir
 
Spd
km/h
Gust
km/h
Spd
kts
Gust
kts
03/11:30pm 22.6 21.2 8.7 41 7.4 ESE 6 7 3 4 1015.6 1015.4 0.0
03/11:00pm 21.4 20.4 9.0 45 6.6 S 4 7 2 4 1015.7 1015.5 0.0
03/10:30pm 21.8 20.4 8.8 43 6.9 E 6 7 3 4 1015.7 1015.5 0.0
03/10:00pm 21.9 20.2 8.4 42 7.1 SE 7 9 4 5 1015.6 1015.4 0.0
03/09:30pm 22.1 20.7 9.0 43 7.0 SE 6 7 3 4 1015.5 1015.3 0.0
03/09:00pm 23.5 21.7 8.0 37 8.2 ESE 7 9 4 5 1015.2 1015.0 0.0
03/08:30pm 24.4 22.1 7.5 34 8.9 ESE 9 11 5 6 1015.0 1014.8 0.0
03/08:00pm 25.7 22.9 6.8 30 9.9 ESE 11 13 6 7 1014.7 1014.5 0.0
03/07:30pm 26.6 23.7 6.3 27 10.6 ESE 11 13 6 7 1014.2 1014.0 0.0
03/07:00pm 27.6 24.5 5.7 24 11.4 ESE 11 15 6 8 1013.8 1013.6 0.0
03/06:30pm 28.6 25.0 6.6 25 11.7 ESE 15 19 8 10 1013.5 1013.3 0.0
03/06:00pm 31.3 26.5 4.7 18 13.9 ESE 19 26 10 14 1013.1 1012.9 0.0
03/05:30pm 32.6 27.9 6.0 19 14.3 SE 20 28 11 15 1012.9 1012.7 0.0
03/05:00pm 33.2 28.0 5.6 18 14.8 ESE 22 30 12 16 1012.8 1012.6 0.0
03/04:30pm 33.7 30.3 5.9 17 15.0 SE 13 37 7 20 1012.4 1012.2 0.0
03/04:00pm 33.9 28.3 5.3 17 15.3 E 24 35 13 19 1012.7 1012.5 0.0
03/03:30pm 33.9 29.9 6.7 18 14.9 E 17 33 9 18 1012.7 1012.5 0.0
03/03:00pm 34.2 30.5 9.4 22 14.2 ESE 19 33 10 18 1013.1 1012.9 0.0
03/02:30pm 33.6 29.0 8.2 21 14.2 ESE 22 33 12 18 1013.6 1013.4 0.0
03/02:00pm 32.8 28.7 8.5 22 13.6 E 20 32 11 17 1014.0 1013.8 0.0
03/01:30pm 31.6 27.2 10.3 27 12.2 ESE 24 43 13 23 1014.8 1014.6 0.0
03/01:00pm 31.3 30.3 13.3 33 10.8 SSE 11 26 6 14 1015.2 1015.0 0.0
03/12:30pm 30.5 30.5 15.2 39 9.4 E 9 17 5 9 1016.0 1015.8 0.0
03/12:00pm 29.6 27.5 14.6 40 9.1 ESE 19 26 10 14 1016.6 1016.4 0.0
03/11:30am 29.8 29.8 15.3 41 8.9 NE 9 22 5 12 1017.0 1016.8 0.0
03/11:00am 27.8 29.2 17.9 54 6.3 ESE 7 11 4 6 1017.5 1017.3 0.0
03/10:30am 26.5 28.5 18.8 62 4.9 NNE 6 11 3 6 1017.4 1017.2 0.0
03/10:00am 25.1 26.9 18.8 68 4.0 WSW 7 11 4 6 1017.1 1016.9 0.0
03/09:30am 22.0 23.9 19.0 83 1.9 W 7 13 4 7 1016.9 1016.7 0.0
03/09:00am 19.9 21.2 17.6 86 1.4 W 7 9 4 5 1016.6 1016.4 0.0
03/08:30am 17.6 19.6 16.1 91 0.9 CALM 0 0 0 0 1016.5 1016.3 0.0
03/08:00am 15.6 17.1 14.7 94 0.5 CALM 0 0 0 0 1016.3 1016.1 0.0
03/07:30am 14.5 15.8 14.1 97 0.2 CALM 0 0 0 0 1016.3 1016.1 0.0
03/07:00am 13.6 14.5 12.9 95 0.4 CALM 0 0 0 0 1016.1 1015.9 0.0
03/06:30am 14.5 15.5 13.1 91 0.8 CALM 0 4 0 2 1015.7 1015.5 0.0
03/06:00am 16.5 17.0 15.1 91 0.8 NNE 6 7 3 4 1015.7 1015.5 0.0
03/05:30am 16.4 17.1 15.7 96 0.4 NE 6 7 3 4 1015.5 1015.3 0.0
03/05:00am 16.2 17.8 15.9 98 0.2 NNE 2 6 1 3 1015.6 1015.4 0.0
03/04:30am 15.5 16.5 14.4 93 0.6 NNE 2 7 1 4 1015.6 1015.4 0.0
03/04:00am 15.8 17.2 14.4 91 0.8 CALM 0 0 0 0 1015.6 1015.4 0.0
03/03:30am 15.8 17.3 14.6 93 0.7 CALM 0 0 0 0 1015.7 1015.5 0.0
03/03:00am 16.9 17.6 15.5 91 0.8 WSW 6 9 3 5 1015.7 1015.5 0.0
03/02:30am 17.6 18.5 16.1 91 0.9 NNE 6 7 3 4 1016.2 1016.0 0.0
03/02:00am 15.5 15.2 11.6 77 2.1 NW 4 9 2 5 1015.9 1015.7 0.0
03/01:30am 16.0 16.4 11.2 73 2.6 CALM 0 0 0 0 1016.0 1015.8 0.0
03/01:00am 16.2 16.3 10.3 68 3.1 CALM 0 0 0 0 1016.3 1016.1 0.0
03/12:30am 15.4 15.2 9.2 66 3.2 CALM 0 0 0 0 1016.3 1016.1 0.0
03/12:00am 19.0 18.5 12.6 66 3.6 NW 7 11 4 6 1016.2 1016.0 0.0
 
Date/Time
CST
Temp
°C
App
Temp
°C
Dew
Point
Rel
Hum
%
Delta-T
°C
Wind Press
QNH
hPa
Press
MSL
hPa
Rain
since 9 am
mm
Dir
 
Spd
km/h
Gust
km/h
Spd
kts
Gust
kts
02/11:30pm 19.0 16.7 7.4 47 5.9 NW 9 17 5 9 1016.2 1016.0 0.0
02/11:00pm 18.4 18.6 10.4 59 4.3 CALM 0 0 0 0 1016.0 1015.8 0.0
02/10:30pm 21.4 19.5 6.7 38 7.5 SE 6 7 3 4 1015.7 1015.5 0.0
02/10:00pm 18.7 18.8 10.3 58 4.5 CALM 0 0 0 0 1015.5 1015.3 0.0
02/09:30pm 19.6 19.5 9.6 52 5.3 CALM 0 0 0 0 1015.3 1015.1 0.0
02/09:00pm 21.6 20.5 8.3 42 7.0 E 4 7 2 4 1015.0 1014.8 0.0
02/08:30pm 22.7 21.2 8.6 40 7.5 E 6 7 3 4 1014.8 1014.6 0.0
02/08:00pm 22.6 22.4 9.0 42 7.3 CALM 0 0 0 0 1014.3 1014.1 0.0
02/07:30pm 26.0 23.5 6.7 29 10.1 E 9 9 5 5 1014.0 1013.8 0.0
02/07:00pm 28.8 25.9 6.3 24 11.9 E 11 13 6 7 1013.7 1013.5 0.0
02/06:30pm 29.3 25.5 6.0 23 12.3 E 15 17 8 9 1013.2 1013.0 0.0
02/06:00pm 31.3 27.1 5.7 20 13.6 E 17 24 9 13 1012.9 1012.7 0.0
02/05:30pm 32.4 29.3 9.0 23 13.2 ENE 15 26 8 14 1012.9 1012.7 0.0
02/05:00pm 33.1 28.7 6.7 19 14.4 ESE 19 30 10 16 1012.8 1012.6 0.0
02/04:30pm 34.0 29.2 5.6 17 15.3 ESE 20 32 11 17 1012.8 1012.6 0.0
02/04:00pm 33.6 29.3 8.0 20 14.3 E 20 32 11 17 1012.7 1012.5 0.0
02/03:30pm 33.3 30.3 9.4 23 13.6 ENE 15 28 8 15 1012.9 1012.7 0.0
02/03:00pm 33.7 30.4 9.6 22 13.8 E 17 28 9 15 1013.4 1013.2 0.0
02/02:30pm 33.5 30.0 8.9 22 13.9 ESE 17 28 9 15 1013.9 1013.7 0.0
02/02:00pm 32.6 27.8 8.7 22 13.4 ESE 24 35 13 19 1014.4 1014.2 0.0
02/01:30pm 32.8 29.2 8.3 22 13.7 ESE 17 35 9 19 1015.0 1014.8 0.0
02/01:00pm 31.4 29.7 12.5 31 11.2 E 13 28 7 15 1015.5 1015.3 0.0
02/12:30pm 30.9 28.3 12.0 31 11.1 E 17 26 9 14 1016.0 1015.8 0.0
02/12:00pm 31.2 30.6 14.7 36 10.1 ENE 11 20 6 11 1016.4 1016.2 0.0
02/11:30am 29.1 28.7 15.2 42 8.5 ENE 11 19 6 10 1016.9 1016.7 0.0
02/11:00am 28.7 29.0 15.9 45 7.9 NE 9 15 5 8 1017.4 1017.2 0.0
02/10:30am 27.4 28.5 16.6 51 6.7 N 6 11 3 6 1017.7 1017.5 0.0
02/10:00am 26.5 27.8 17.0 56 5.9 NNE 6 9 3 5 1017.8 1017.6 0.0
02/09:30am 23.6 24.8 16.9 66 4.1 NW 6 9 3 5 1017.6 1017.4 0.0
02/09:16am 22.4 24.0 15.9 66 3.9 N 2 6 1 3 1017.5 - 0.0
02/09:00am 20.8 22.4 14.8 68 3.5 CALM 0 0 0 0 1017.5 1017.3 0.0
02/08:30am 17.4 17.9 12.9 75 2.5 NE 2 7 1 4 1017.2 1017.0 0.0
02/08:00am 15.0 15.6 11.9 82 1.7 CALM 0 0 0 0 1017.0 1016.8 0.0
02/07:30am 14.2 14.6 11.2 82 1.6 CALM 0 0 0 0 1016.6 1016.4 0.0
02/07:00am 14.1 14.1 11.1 82 1.6 NNE 2 6 1 3 1016.2 1016.0 0.0
02/06:30am 13.9 12.9 10.9 82 1.6 NE 7 9 4 5 1015.7 1015.5 0.0
02/06:00am 13.8 14.1 11.0 83 1.5 CALM 0 0 0 0 1015.4 1015.2 0.0
02/05:30am 13.3 13.7 11.2 87 1.1 CALM 0 0 0 0 1015.2 1015.0 0.0
02/05:00am 12.9 13.3 11.4 91 0.8 CALM 0 0 0 0 1015.1 1014.9 0.0
02/04:30am 14.8 15.7 13.0 89 1.0 CALM 0 0 0 0 1015.0 1014.8 0.0
02/04:00am 15.2 16.4 13.8 91 0.8 CALM 0 0 0 0 1014.9 1014.7 0.0
02/03:30am 14.2 13.4 11.2 82 1.6 NE 6 9 3 5 1015.0 1014.8 0.0
02/03:00am 14.8 15.9 13.4 91 0.8 CALM 0 0 0 0 1014.7 1014.5 0.0
02/02:30am 14.9 16.0 13.5 91 0.8 CALM 0 0 0 0 1014.8 1014.6 0.0
02/02:00am 15.7 16.1 13.6 87 1.2 NW 4 7 2 4 1014.7 1014.5 0.0
02/01:30am 18.1 18.6 15.6 85 1.5 NW 7 13 4 7 1014.8 1014.6 0.0
02/01:00am 18.5 18.3 13.6 73 2.8 NNW 7 11 4 6 1014.7 1014.5 0.0
02/12:30am 18.5 17.8 8.7 53 5.1 NNW 2 7 1 4 1014.6 1014.4 0.0
02/12:00am 18.0 17.8 9.2 56 4.6 CALM 0 0 0 0 1014.7 1014.5 0.0
 
Date/Time
CST
Temp
°C
App
Temp
°C
Dew
Point
Rel
Hum
%
Delta-T
°C
Wind Press
QNH
hPa
Press
MSL
hPa
Rain
since 9 am
mm
Dir
 
Spd
km/h
Gust
km/h
Spd
kts
Gust
kts
01/11:30pm 18.7 19.0 10.8 60 4.3 CALM 0 0 0 0 1014.6 1014.4 0.0
01/11:00pm 19.0 18.0 10.2 56 4.7 NE 6 7 3 4 1014.6 1014.4 0.0
01/10:30pm 20.0 18.7 9.2 49 5.7 E 6 7 3 4 1014.6 1014.4 0.0
01/10:00pm 21.1 19.8 9.1 46 6.4 ESE 6 7 3 4 1014.6 1014.4 0.0
01/09:30pm 20.8 19.8 10.3 51 5.7 E 6 6 3 3 1014.4 1014.2 0.0
01/09:00pm 22.6 21.5 9.9 44 6.9 ESE 6 7 3 4 1014.0 1013.8 0.0
01/08:30pm 23.7 22.4 9.3 40 7.8 ESE 6 7 3 4 1013.7 1013.5 0.0
01/08:00pm 25.0 24.0 9.0 36 8.7 SE 4 7 2 4 1013.5 1013.3 0.0
01/07:30pm 25.2 25.4 10.7 40 8.1 CALM 0 0 0 0 1013.0 1012.8 0.0
01/07:00pm 26.5 25.3 10.2 36 9.1 SE 7 9 4 5 1012.6 1012.4 0.0
01/06:30pm 27.9 25.6 9.1 30 10.4 SSE 11 13 6 7 1012.4 1012.2 0.0
01/06:00pm 30.8 27.8 7.9 24 12.6 SE 13 19 7 10 1012.3 1012.1 0.0
01/05:30pm 32.1 29.1 7.9 22 13.4 SSE 13 19 7 10 1012.3 1012.1 0.0
01/05:00pm 32.6 29.1 7.0 20 14.0 S 15 26 8 14 1012.1 1011.9 0.0
01/04:30pm 33.0 29.9 7.1 20 14.2 SE 13 20 7 11 1012.2 1012.0 0.0
01/04:00pm 33.0 29.7 6.2 19 14.5 E 13 24 7 13 1012.2 1012.0 0.0
01/03:30pm 33.3 31.5 9.4 23 13.6 ESE 9 26 5 14 1012.3 1012.1 0.0
01/03:00pm 32.2 31.3 10.5 26 12.5 SSE 6 13 3 7 1012.8 1012.6 0.0

Other Formats:

Comma delimited format used in spreadsheet applications
http://www.bom.gov.au/fwo/IDD60801/IDD60801.94128.axf

JavaScript Object Notation format (JSON) in row-major order
http://www.bom.gov.au/fwo/IDD60801/IDD60801.94128.json